sensor_id;sensor_type;location;lat;lon;timestamp;P1;durP1;ratioP1;P2;durP2;ratioP2
4074;SDS011;2052;53.522;9.806;2022-07-29T00:01:24;4.50;;;2.50;;
4074;SDS011;2052;53.522;9.806;2022-07-29T00:03:51;5.17;;;2.57;;
4074;SDS011;2052;53.522;9.806;2022-07-29T00:06:18;5.33;;;2.13;;
4074;SDS011;2052;53.522;9.806;2022-07-29T00:08:45;5.23;;;2.00;;
4074;SDS011;2052;53.522;9.806;2022-07-29T00:11:12;5.00;;;2.00;;
4074;SDS011;2052;53.522;9.806;2022-07-29T00:13:39;4.73;;;2.40;;
4074;SDS011;2052;53.522;9.806;2022-07-29T00:16:06;5.57;;;2.87;;
4074;SDS011;2052;53.522;9.806;2022-07-29T00:18:34;6.10;;;3.10;;
4074;SDS011;2052;53.522;9.806;2022-07-29T00:21:01;7.60;;;2.63;;
4074;SDS011;2052;53.522;9.806;2022-07-29T00:23:27;3.63;;;2.67;;
4074;SDS011;2052;53.522;9.806;2022-07-29T00:25:54;7.63;;;2.93;;
4074;SDS011;2052;53.522;9.806;2022-07-29T00:28:21;3.77;;;2.70;;
4074;SDS011;2052;53.522;9.806;2022-07-29T00:30:47;4.50;;;2.53;;
4074;SDS011;2052;53.522;9.806;2022-07-29T00:33:14;6.20;;;2.63;;
4074;SDS011;2052;53.522;9.806;2022-07-29T00:35:42;12.17;;;2.90;;
4074;SDS011;2052;53.522;9.806;2022-07-29T00:38:11;5.30;;;2.47;;
4074;SDS011;2052;53.522;9.806;2022-07-29T00:40:39;8.77;;;2.77;;
4074;SDS011;2052;53.522;9.806;2022-07-29T00:43:06;3.80;;;2.17;;
4074;SDS011;2052;53.522;9.806;2022-07-29T00:45:33;5.30;;;2.40;;
4074;SDS011;2052;53.522;9.806;2022-07-29T00:48:00;4.07;;;2.27;;
4074;SDS011;2052;53.522;9.806;2022-07-29T00:50:29;5.60;;;2.77;;
4074;SDS011;2052;53.522;9.806;2022-07-29T00:52:57;4.07;;;2.70;;
4074;SDS011;2052;53.522;9.806;2022-07-29T00:55:24;9.60;;;2.80;;
4074;SDS011;2052;53.522;9.806;2022-07-29T00:57:51;4.93;;;2.90;;
4074;SDS011;2052;53.522;9.806;2022-07-29T01:00:19;5.57;;;2.87;;
4074;SDS011;2052;53.522;9.806;2022-07-29T01:02:47;5.50;;;3.13;;
4074;SDS011;2052;53.522;9.806;2022-07-29T01:05:14;6.33;;;2.80;;
4074;SDS011;2052;53.522;9.806;2022-07-29T01:07:43;5.50;;;2.93;;
4074;SDS011;2052;53.522;9.806;2022-07-29T01:10:12;5.40;;;2.97;;
4074;SDS011;2052;53.522;9.806;2022-07-29T01:12:39;6.83;;;2.83;;
4074;SDS011;2052;53.522;9.806;2022-07-29T01:15:07;3.77;;;2.70;;
4074;SDS011;2052;53.522;9.806;2022-07-29T01:17:36;10.73;;;3.80;;
4074;SDS011;2052;53.522;9.806;2022-07-29T01:20:07;7.97;;;4.60;;
4074;SDS011;2052;53.522;9.806;2022-07-29T01:23:01;8.70;;;4.17;;
4074;SDS011;2052;53.522;9.806;2022-07-29T01:25:57;5.03;;;3.70;;
4074;SDS011;2052;53.522;9.806;2022-07-29T01:29:01;5.30;;;3.70;;
4074;SDS011;2052;53.522;9.806;2022-07-29T01:31:31;6.50;;;3.30;;
4074;SDS011;2052;53.522;9.806;2022-07-29T01:34:02;8.40;;;3.23;;
4074;SDS011;2052;53.522;9.806;2022-07-29T01:36:31;4.30;;;3.03;;
4074;SDS011;2052;53.522;9.806;2022-07-29T01:39:02;8.93;;;3.83;;
4074;SDS011;2052;53.522;9.806;2022-07-29T01:41:32;4.63;;;3.20;;
4074;SDS011;2052;53.522;9.806;2022-07-29T01:44:04;7.60;;;3.07;;
4074;SDS011;2052;53.522;9.806;2022-07-29T01:46:37;4.97;;;3.77;;
4074;SDS011;2052;53.522;9.806;2022-07-29T01:49:06;4.13;;;3.10;;
4074;SDS011;2052;53.522;9.806;2022-07-29T01:51:35;5.93;;;3.20;;
4074;SDS011;2052;53.522;9.806;2022-07-29T01:54:08;9.30;;;3.57;;
4074;SDS011;2052;53.522;9.806;2022-07-29T01:56:39;6.57;;;3.20;;
4074;SDS011;2052;53.522;9.806;2022-07-29T01:59:08;7.40;;;3.40;;
4074;SDS011;2052;53.522;9.806;2022-07-29T02:01:36;9.50;;;3.80;;
4074;SDS011;2052;53.522;9.806;2022-07-29T02:04:04;8.10;;;3.20;;
4074;SDS011;2052;53.522;9.806;2022-07-29T02:06:32;8.90;;;3.30;;
4074;SDS011;2052;53.522;9.806;2022-07-29T02:08:59;8.33;;;3.40;;
4074;SDS011;2052;53.522;9.806;2022-07-29T02:11:27;8.80;;;3.80;;
4074;SDS011;2052;53.522;9.806;2022-07-29T02:13:56;3.40;;;2.80;;
4074;SDS011;2052;53.522;9.806;2022-07-29T02:16:24;8.63;;;3.47;;
4074;SDS011;2052;53.522;9.806;2022-07-29T02:18:53;7.83;;;3.43;;
4074;SDS011;2052;53.522;9.806;2022-07-29T02:21:21;6.40;;;3.60;;
4074;SDS011;2052;53.522;9.806;2022-07-29T02:23:50;5.30;;;3.40;;
4074;SDS011;2052;53.522;9.806;2022-07-29T02:26:19;5.60;;;3.10;;
4074;SDS011;2052;53.522;9.806;2022-07-29T02:28:47;6.53;;;3.60;;
4074;SDS011;2052;53.522;9.806;2022-07-29T02:31:15;6.00;;;3.00;;
4074;SDS011;2052;53.522;9.806;2022-07-29T02:33:46;7.13;;;3.43;;
4074;SDS011;2052;53.522;9.806;2022-07-29T02:36:13;6.43;;;3.20;;
4074;SDS011;2052;53.522;9.806;2022-07-29T02:38:41;4.63;;;2.87;;
4074;SDS011;2052;53.522;9.806;2022-07-29T02:41:18;5.37;;;3.10;;
4074;SDS011;2052;53.522;9.806;2022-07-29T02:43:47;9.10;;;4.03;;
4074;SDS011;2052;53.522;9.806;2022-07-29T02:46:18;4.07;;;3.40;;
4074;SDS011;2052;53.522;9.806;2022-07-29T02:48:48;4.20;;;2.60;;
4074;SDS011;2052;53.522;9.806;2022-07-29T02:51:18;6.77;;;3.47;;
4074;SDS011;2052;53.522;9.806;2022-07-29T02:53:46;6.03;;;4.10;;
4074;SDS011;2052;53.522;9.806;2022-07-29T02:56:16;11.50;;;4.10;;
4074;SDS011;2052;53.522;9.806;2022-07-29T02:58:45;9.33;;;4.20;;
4074;SDS011;2052;53.522;9.806;2022-07-29T03:01:16;7.23;;;3.30;;
4074;SDS011;2052;53.522;9.806;2022-07-29T03:03:48;7.63;;;3.73;;
4074;SDS011;2052;53.522;9.806;2022-07-29T03:06:16;7.60;;;4.07;;
4074;SDS011;2052;53.522;9.806;2022-07-29T03:08:44;8.27;;;3.90;;
4074;SDS011;2052;53.522;9.806;2022-07-29T03:11:11;11.07;;;4.10;;
4074;SDS011;2052;53.522;9.806;2022-07-29T03:13:39;5.90;;;3.30;;
4074;SDS011;2052;53.522;9.806;2022-07-29T03:16:06;7.03;;;3.40;;
4074;SDS011;2052;53.522;9.806;2022-07-29T03:18:33;5.40;;;3.00;;
4074;SDS011;2052;53.522;9.806;2022-07-29T03:21:02;11.37;;;3.40;;
4074;SDS011;2052;53.522;9.806;2022-07-29T03:23:29;6.77;;;3.70;;
4074;SDS011;2052;53.522;9.806;2022-07-29T03:25:56;7.27;;;4.30;;
4074;SDS011;2052;53.522;9.806;2022-07-29T03:28:23;5.77;;;3.90;;
4074;SDS011;2052;53.522;9.806;2022-07-29T03:30:52;5.60;;;3.40;;
4074;SDS011;2052;53.522;9.806;2022-07-29T03:33:19;4.87;;;3.30;;
4074;SDS011;2052;53.522;9.806;2022-07-29T03:35:45;6.13;;;3.40;;
4074;SDS011;2052;53.522;9.806;2022-07-29T03:38:14;5.50;;;3.20;;
4074;SDS011;2052;53.522;9.806;2022-07-29T03:40:42;6.13;;;3.20;;
4074;SDS011;2052;53.522;9.806;2022-07-29T03:43:13;5.03;;;3.20;;
4074;SDS011;2052;53.522;9.806;2022-07-29T03:45:42;4.43;;;3.33;;
4074;SDS011;2052;53.522;9.806;2022-07-29T03:48:10;4.93;;;3.40;;
4074;SDS011;2052;53.522;9.806;2022-07-29T03:50:39;5.37;;;3.50;;
4074;SDS011;2052;53.522;9.806;2022-07-29T03:53:06;10.80;;;2.90;;
4074;SDS011;2052;53.522;9.806;2022-07-29T03:55:36;5.63;;;3.57;;
4074;SDS011;2052;53.522;9.806;2022-07-29T03:58:06;4.60;;;3.10;;
4074;SDS011;2052;53.522;9.806;2022-07-29T04:00:34;4.23;;;3.10;;
4074;SDS011;2052;53.522;9.806;2022-07-29T04:03:01;11.30;;;3.70;;
4074;SDS011;2052;53.522;9.806;2022-07-29T04:05:28;4.80;;;2.97;;
4074;SDS011;2052;53.522;9.806;2022-07-29T04:07:55;6.20;;;3.77;;
4074;SDS011;2052;53.522;9.806;2022-07-29T04:10:21;9.27;;;3.40;;
4074;SDS011;2052;53.522;9.806;2022-07-29T04:12:50;5.57;;;3.23;;
4074;SDS011;2052;53.522;9.806;2022-07-29T04:15:17;5.20;;;3.40;;
4074;SDS011;2052;53.522;9.806;2022-07-29T04:17:44;6.10;;;3.50;;
4074;SDS011;2052;53.522;9.806;2022-07-29T04:20:11;8.37;;;3.57;;
4074;SDS011;2052;53.522;9.806;2022-07-29T04:22:38;8.97;;;3.33;;
4074;SDS011;2052;53.522;9.806;2022-07-29T04:25:05;8.67;;;3.30;;
4074;SDS011;2052;53.522;9.806;2022-07-29T04:27:33;6.23;;;3.77;;
4074;SDS011;2052;53.522;9.806;2022-07-29T04:30:01;4.47;;;3.50;;
4074;SDS011;2052;53.522;9.806;2022-07-29T04:32:28;5.00;;;3.30;;
4074;SDS011;2052;53.522;9.806;2022-07-29T04:34:54;7.30;;;3.50;;
4074;SDS011;2052;53.522;9.806;2022-07-29T04:37:21;5.37;;;3.57;;
4074;SDS011;2052;53.522;9.806;2022-07-29T04:39:48;5.50;;;3.70;;
4074;SDS011;2052;53.522;9.806;2022-07-29T04:42:15;7.30;;;4.13;;
4074;SDS011;2052;53.522;9.806;2022-07-29T04:44:42;6.17;;;2.90;;
4074;SDS011;2052;53.522;9.806;2022-07-29T04:47:10;6.43;;;3.77;;
4074;SDS011;2052;53.522;9.806;2022-07-29T04:49:37;9.57;;;4.13;;
4074;SDS011;2052;53.522;9.806;2022-07-29T04:52:04;5.87;;;3.23;;
4074;SDS011;2052;53.522;9.806;2022-07-29T04:54:31;6.93;;;3.80;;
4074;SDS011;2052;53.522;9.806;2022-07-29T04:56:58;11.00;;;3.60;;
4074;SDS011;2052;53.522;9.806;2022-07-29T04:59:25;10.73;;;3.93;;
4074;SDS011;2052;53.522;9.806;2022-07-29T05:01:52;4.70;;;3.57;;
4074;SDS011;2052;53.522;9.806;2022-07-29T05:04:23;8.10;;;3.37;;
4074;SDS011;2052;53.522;9.806;2022-07-29T05:06:49;5.23;;;3.40;;
4074;SDS011;2052;53.522;9.806;2022-07-29T05:09:16;5.87;;;3.67;;
4074;SDS011;2052;53.522;9.806;2022-07-29T05:11:43;6.43;;;3.47;;
4074;SDS011;2052;53.522;9.806;2022-07-29T05:14:10;7.20;;;3.60;;
4074;SDS011;2052;53.522;9.806;2022-07-29T05:16:36;8.50;;;4.03;;
4074;SDS011;2052;53.522;9.806;2022-07-29T05:19:04;7.30;;;3.20;;
4074;SDS011;2052;53.522;9.806;2022-07-29T05:21:32;6.43;;;3.70;;
4074;SDS011;2052;53.522;9.806;2022-07-29T05:23:59;7.20;;;3.97;;
4074;SDS011;2052;53.522;9.806;2022-07-29T05:26:25;8.83;;;3.63;;
4074;SDS011;2052;53.522;9.806;2022-07-29T05:28:52;6.33;;;3.40;;
4074;SDS011;2052;53.522;9.806;2022-07-29T05:31:19;8.23;;;4.00;;
4074;SDS011;2052;53.522;9.806;2022-07-29T05:33:46;7.40;;;3.03;;
4074;SDS011;2052;53.522;9.806;2022-07-29T05:36:13;7.30;;;3.00;;
4074;SDS011;2052;53.522;9.806;2022-07-29T05:38:42;9.80;;;4.30;;
4074;SDS011;2052;53.522;9.806;2022-07-29T05:41:08;10.13;;;3.07;;
4074;SDS011;2052;53.522;9.806;2022-07-29T05:43:35;7.80;;;3.03;;
4074;SDS011;2052;53.522;9.806;2022-07-29T05:46:02;12.03;;;3.40;;
4074;SDS011;2052;53.522;9.806;2022-07-29T05:48:28;8.43;;;3.70;;
4074;SDS011;2052;53.522;9.806;2022-07-29T05:50:55;10.80;;;3.33;;
4074;SDS011;2052;53.522;9.806;2022-07-29T05:53:22;5.20;;;3.50;;
4074;SDS011;2052;53.522;9.806;2022-07-29T05:55:50;11.27;;;3.90;;
4074;SDS011;2052;53.522;9.806;2022-07-29T05:58:17;13.20;;;3.97;;
4074;SDS011;2052;53.522;9.806;2022-07-29T06:00:44;5.20;;;3.40;;
4074;SDS011;2052;53.522;9.806;2022-07-29T06:03:11;8.10;;;3.40;;
4074;SDS011;2052;53.522;9.806;2022-07-29T06:05:38;8.40;;;2.70;;
4074;SDS011;2052;53.522;9.806;2022-07-29T06:08:05;4.60;;;3.00;;
4074;SDS011;2052;53.522;9.806;2022-07-29T06:10:32;6.27;;;4.33;;
4074;SDS011;2052;53.522;9.806;2022-07-29T06:13:00;7.83;;;4.00;;
4074;SDS011;2052;53.522;9.806;2022-07-29T06:15:27;8.17;;;3.43;;
4074;SDS011;2052;53.522;9.806;2022-07-29T06:17:53;10.67;;;3.37;;
4074;SDS011;2052;53.522;9.806;2022-07-29T06:20:20;5.43;;;3.27;;
4074;SDS011;2052;53.522;9.806;2022-07-29T06:22:47;10.23;;;2.70;;
4074;SDS011;2052;53.522;9.806;2022-07-29T06:25:13;6.30;;;3.53;;
4074;SDS011;2052;53.522;9.806;2022-07-29T06:27:41;10.93;;;3.83;;
4074;SDS011;2052;53.522;9.806;2022-07-29T06:30:09;5.57;;;3.13;;
4074;SDS011;2052;53.522;9.806;2022-07-29T06:32:36;8.73;;;3.50;;
4074;SDS011;2052;53.522;9.806;2022-07-29T06:35:03;11.53;;;3.53;;
4074;SDS011;2052;53.522;9.806;2022-07-29T06:37:31;5.80;;;3.37;;
4074;SDS011;2052;53.522;9.806;2022-07-29T06:39:58;4.50;;;2.97;;
4074;SDS011;2052;53.522;9.806;2022-07-29T06:42:41;8.90;;;3.40;;
4074;SDS011;2052;53.522;9.806;2022-07-29T06:45:10;8.97;;;3.13;;
4074;SDS011;2052;53.522;9.806;2022-07-29T06:47:37;4.37;;;3.20;;
4074;SDS011;2052;53.522;9.806;2022-07-29T06:50:04;7.57;;;2.57;;
4074;SDS011;2052;53.522;9.806;2022-07-29T06:52:31;6.10;;;3.00;;
4074;SDS011;2052;53.522;9.806;2022-07-29T06:54:58;6.50;;;2.60;;
4074;SDS011;2052;53.522;9.806;2022-07-29T06:57:25;4.03;;;2.43;;
4074;SDS011;2052;53.522;9.806;2022-07-29T06:59:52;6.00;;;2.93;;
4074;SDS011;2052;53.522;9.806;2022-07-29T07:02:20;11.37;;;3.30;;
4074;SDS011;2052;53.522;9.806;2022-07-29T07:04:47;3.80;;;2.40;;
4074;SDS011;2052;53.522;9.806;2022-07-29T07:07:14;3.57;;;2.63;;
4074;SDS011;2052;53.522;9.806;2022-07-29T07:09:41;4.83;;;2.60;;
4074;SDS011;2052;53.522;9.806;2022-07-29T07:12:08;5.20;;;2.50;;
4074;SDS011;2052;53.522;9.806;2022-07-29T07:14:35;5.00;;;2.80;;
4074;SDS011;2052;53.522;9.806;2022-07-29T07:17:01;5.80;;;3.27;;
4074;SDS011;2052;53.522;9.806;2022-07-29T07:19:30;12.60;;;3.23;;
4074;SDS011;2052;53.522;9.806;2022-07-29T07:21:57;5.73;;;2.90;;
4074;SDS011;2052;53.522;9.806;2022-07-29T07:24:24;6.40;;;2.83;;
4074;SDS011;2052;53.522;9.806;2022-07-29T07:26:50;4.13;;;2.53;;
4074;SDS011;2052;53.522;9.806;2022-07-29T07:29:17;6.80;;;3.20;;
4074;SDS011;2052;53.522;9.806;2022-07-29T07:31:44;5.63;;;3.27;;
4074;SDS011;2052;53.522;9.806;2022-07-29T07:34:11;7.67;;;3.30;;
4074;SDS011;2052;53.522;9.806;2022-07-29T07:36:39;6.67;;;3.23;;
4074;SDS011;2052;53.522;9.806;2022-07-29T07:39:06;5.37;;;3.20;;
4074;SDS011;2052;53.522;9.806;2022-07-29T07:41:32;7.50;;;3.40;;
4074;SDS011;2052;53.522;9.806;2022-07-29T07:43:59;7.10;;;3.40;;
4074;SDS011;2052;53.522;9.806;2022-07-29T07:46:26;5.10;;;2.70;;
4074;SDS011;2052;53.522;9.806;2022-07-29T07:48:53;6.17;;;3.40;;
4074;SDS011;2052;53.522;9.806;2022-07-29T07:51:19;10.70;;;3.43;;
4074;SDS011;2052;53.522;9.806;2022-07-29T07:53:47;5.50;;;2.90;;
4074;SDS011;2052;53.522;9.806;2022-07-29T07:56:15;4.00;;;2.70;;
4074;SDS011;2052;53.522;9.806;2022-07-29T07:58:42;5.50;;;2.93;;
4074;SDS011;2052;53.522;9.806;2022-07-29T08:01:08;8.50;;;3.10;;
4074;SDS011;2052;53.522;9.806;2022-07-29T08:03:35;9.90;;;3.03;;
4074;SDS011;2052;53.522;9.806;2022-07-29T08:06:02;12.47;;;3.23;;
4074;SDS011;2052;53.522;9.806;2022-07-29T08:08:30;8.67;;;2.77;;
4074;SDS011;2052;53.522;9.806;2022-07-29T08:10:58;2.83;;;2.40;;
4074;SDS011;2052;53.522;9.806;2022-07-29T08:13:27;9.17;;;2.77;;
4074;SDS011;2052;53.522;9.806;2022-07-29T08:15:55;7.33;;;2.30;;
4074;SDS011;2052;53.522;9.806;2022-07-29T08:18:26;4.30;;;1.90;;
4074;SDS011;2052;53.522;9.806;2022-07-29T08:20:54;3.80;;;2.60;;
4074;SDS011;2052;53.522;9.806;2022-07-29T08:23:21;9.53;;;2.77;;
4074;SDS011;2052;53.522;9.806;2022-07-29T08:25:48;3.87;;;2.33;;
4074;SDS011;2052;53.522;9.806;2022-07-29T08:28:17;6.40;;;2.30;;
4074;SDS011;2052;53.522;9.806;2022-07-29T08:30:44;2.23;;;2.10;;
4074;SDS011;2052;53.522;9.806;2022-07-29T08:33:11;4.00;;;2.47;;
4074;SDS011;2052;53.522;9.806;2022-07-29T08:35:38;5.90;;;2.50;;
4074;SDS011;2052;53.522;9.806;2022-07-29T08:38:04;3.40;;;2.60;;
4074;SDS011;2052;53.522;9.806;2022-07-29T08:40:31;5.50;;;2.20;;
4074;SDS011;2052;53.522;9.806;2022-07-29T08:42:58;7.17;;;2.87;;
4074;SDS011;2052;53.522;9.806;2022-07-29T08:45:27;4.63;;;2.60;;
4074;SDS011;2052;53.522;9.806;2022-07-29T08:47:54;2.50;;;2.07;;
4074;SDS011;2052;53.522;9.806;2022-07-29T08:50:21;4.17;;;2.10;;
4074;SDS011;2052;53.522;9.806;2022-07-29T08:52:48;4.57;;;2.10;;
4074;SDS011;2052;53.522;9.806;2022-07-29T08:55:16;4.20;;;1.80;;
4074;SDS011;2052;53.522;9.806;2022-07-29T08:57:43;3.37;;;1.80;;
4074;SDS011;2052;53.522;9.806;2022-07-29T09:00:10;8.67;;;2.17;;
4074;SDS011;2052;53.522;9.806;2022-07-29T09:02:41;4.37;;;1.97;;
4074;SDS011;2052;53.522;9.806;2022-07-29T09:05:09;3.10;;;2.10;;
4074;SDS011;2052;53.522;9.806;2022-07-29T09:07:36;4.47;;;2.70;;
4074;SDS011;2052;53.522;9.806;2022-07-29T09:10:07;2.40;;;2.00;;
4074;SDS011;2052;53.522;9.806;2022-07-29T09:12:34;2.37;;;2.10;;
4074;SDS011;2052;53.522;9.806;2022-07-29T09:15:01;6.60;;;2.53;;
4074;SDS011;2052;53.522;9.806;2022-07-29T09:17:43;4.30;;;2.30;;
4074;SDS011;2052;53.522;9.806;2022-07-29T09:20:10;3.80;;;2.10;;
4074;SDS011;2052;53.522;9.806;2022-07-29T09:22:38;5.47;;;2.50;;
4074;SDS011;2052;53.522;9.806;2022-07-29T09:25:05;4.03;;;2.73;;
4074;SDS011;2052;53.522;9.806;2022-07-29T09:27:33;3.23;;;2.03;;
4074;SDS011;2052;53.522;9.806;2022-07-29T09:30:00;4.60;;;2.00;;
4074;SDS011;2052;53.522;9.806;2022-07-29T09:32:28;4.33;;;2.10;;
4074;SDS011;2052;53.522;9.806;2022-07-29T09:35:16;4.50;;;2.73;;
4074;SDS011;2052;53.522;9.806;2022-07-29T09:37:44;6.90;;;2.80;;
4074;SDS011;2052;53.522;9.806;2022-07-29T09:40:12;4.40;;;2.50;;
4074;SDS011;2052;53.522;9.806;2022-07-29T09:42:40;5.07;;;2.77;;
4074;SDS011;2052;53.522;9.806;2022-07-29T09:45:07;5.37;;;2.63;;
4074;SDS011;2052;53.522;9.806;2022-07-29T09:47:41;5.40;;;2.67;;
4074;SDS011;2052;53.522;9.806;2022-07-29T09:50:12;3.20;;;2.50;;
4074;SDS011;2052;53.522;9.806;2022-07-29T09:52:46;8.57;;;2.67;;
4074;SDS011;2052;53.522;9.806;2022-07-29T09:55:13;7.70;;;2.40;;
4074;SDS011;2052;53.522;9.806;2022-07-29T09:57:40;7.87;;;2.37;;
4074;SDS011;2052;53.522;9.806;2022-07-29T10:00:08;6.40;;;2.60;;
4074;SDS011;2052;53.522;9.806;2022-07-29T10:02:36;4.30;;;2.53;;
4074;SDS011;2052;53.522;9.806;2022-07-29T10:05:04;4.17;;;2.37;;
4074;SDS011;2052;53.522;9.806;2022-07-29T10:07:46;5.90;;;2.30;;
4074;SDS011;2052;53.522;9.806;2022-07-29T10:10:18;4.30;;;2.30;;
4074;SDS011;2052;53.522;9.806;2022-07-29T10:12:48;6.00;;;3.00;;
4074;SDS011;2052;53.522;9.806;2022-07-29T10:15:15;5.83;;;2.50;;
4074;SDS011;2052;53.522;9.806;2022-07-29T10:17:42;5.97;;;2.20;;
4074;SDS011;2052;53.522;9.806;2022-07-29T10:20:09;4.20;;;2.27;;
4074;SDS011;2052;53.522;9.806;2022-07-29T10:22:36;5.10;;;2.07;;
4074;SDS011;2052;53.522;9.806;2022-07-29T10:25:05;5.20;;;2.47;;
4074;SDS011;2052;53.522;9.806;2022-07-29T10:27:32;3.67;;;1.83;;
4074;SDS011;2052;53.522;9.806;2022-07-29T10:29:58;3.77;;;2.27;;
4074;SDS011;2052;53.522;9.806;2022-07-29T10:32:33;5.60;;;2.07;;
4074;SDS011;2052;53.522;9.806;2022-07-29T10:35:12;3.83;;;1.97;;
4074;SDS011;2052;53.522;9.806;2022-07-29T10:37:46;10.10;;;2.50;;
4074;SDS011;2052;53.522;9.806;2022-07-29T10:40:28;2.70;;;1.80;;
4074;SDS011;2052;53.522;9.806;2022-07-29T10:43:20;9.23;;;2.37;;
4074;SDS011;2052;53.522;9.806;2022-07-29T10:45:48;6.07;;;1.87;;
4074;SDS011;2052;53.522;9.806;2022-07-29T10:48:16;3.77;;;1.80;;
4074;SDS011;2052;53.522;9.806;2022-07-29T10:56:25;4.53;;;1.93;;
4074;SDS011;2052;53.522;9.806;2022-07-29T11:01:51;2.60;;;1.43;;
4074;SDS011;2052;53.522;9.806;2022-07-29T11:07:18;3.13;;;1.50;;
4074;SDS011;2052;53.522;9.806;2022-07-29T11:09:48;5.33;;;2.60;;
4074;SDS011;2052;53.522;9.806;2022-07-29T11:12:49;5.27;;;3.33;;
4074;SDS011;2052;53.522;9.806;2022-07-29T11:15:16;2.47;;;1.80;;
4074;SDS011;2052;53.522;9.806;2022-07-29T11:20:32;3.80;;;2.17;;
4074;SDS011;2052;53.522;9.806;2022-07-29T11:23:00;4.30;;;2.10;;
4074;SDS011;2052;53.522;9.806;2022-07-29T11:25:27;4.83;;;2.30;;
4074;SDS011;2052;53.522;9.806;2022-07-29T11:28:10;3.73;;;1.90;;
4074;SDS011;2052;53.522;9.806;2022-07-29T11:30:50;5.07;;;1.83;;
4074;SDS011;2052;53.522;9.806;2022-07-29T11:33:27;3.57;;;2.23;;
4074;SDS011;2052;53.522;9.806;2022-07-29T11:36:07;3.00;;;1.90;;
4074;SDS011;2052;53.522;9.806;2022-07-29T11:38:35;2.03;;;1.87;;
4074;SDS011;2052;53.522;9.806;2022-07-29T11:41:21;5.27;;;1.90;;
4074;SDS011;2052;53.522;9.806;2022-07-29T11:43:51;3.20;;;1.70;;
4074;SDS011;2052;53.522;9.806;2022-07-29T11:49:11;2.67;;;1.70;;
4074;SDS011;2052;53.522;9.806;2022-07-29T11:51:38;4.27;;;1.70;;
4074;SDS011;2052;53.522;9.806;2022-07-29T11:54:05;2.80;;;1.77;;
4074;SDS011;2052;53.522;9.806;2022-07-29T11:56:35;3.67;;;1.80;;
4074;SDS011;2052;53.522;9.806;2022-07-29T11:59:07;4.40;;;2.40;;
4074;SDS011;2052;53.522;9.806;2022-07-29T12:01:34;2.00;;;1.83;;
4074;SDS011;2052;53.522;9.806;2022-07-29T12:04:02;4.40;;;1.90;;
4074;SDS011;2052;53.522;9.806;2022-07-29T12:06:29;3.10;;;1.53;;
4074;SDS011;2052;53.522;9.806;2022-07-29T12:08:56;4.27;;;1.97;;
4074;SDS011;2052;53.522;9.806;2022-07-29T12:11:23;3.83;;;1.87;;
4074;SDS011;2052;53.522;9.806;2022-07-29T12:13:50;3.83;;;1.90;;
4074;SDS011;2052;53.522;9.806;2022-07-29T12:16:19;5.40;;;2.23;;
4074;SDS011;2052;53.522;9.806;2022-07-29T12:18:54;7.97;;;2.13;;
4074;SDS011;2052;53.522;9.806;2022-07-29T12:21:21;4.00;;;1.87;;
4074;SDS011;2052;53.522;9.806;2022-07-29T12:23:52;6.40;;;1.90;;
4074;SDS011;2052;53.522;9.806;2022-07-29T12:26:19;6.13;;;1.97;;
4074;SDS011;2052;53.522;9.806;2022-07-29T12:28:46;3.00;;;1.80;;
4074;SDS011;2052;53.522;9.806;2022-07-29T12:31:14;3.57;;;1.77;;
4074;SDS011;2052;53.522;9.806;2022-07-29T12:33:42;2.50;;;1.50;;
4074;SDS011;2052;53.522;9.806;2022-07-29T12:36:09;2.10;;;1.80;;
4074;SDS011;2052;53.522;9.806;2022-07-29T12:38:36;4.37;;;2.30;;
4074;SDS011;2052;53.522;9.806;2022-07-29T12:41:02;2.50;;;1.70;;
4074;SDS011;2052;53.522;9.806;2022-07-29T12:43:29;2.20;;;1.70;;
4074;SDS011;2052;53.522;9.806;2022-07-29T12:45:56;2.60;;;1.90;;
4074;SDS011;2052;53.522;9.806;2022-07-29T12:48:33;4.10;;;1.63;;
4074;SDS011;2052;53.522;9.806;2022-07-29T12:51:02;5.47;;;2.60;;
4074;SDS011;2052;53.522;9.806;2022-07-29T12:53:31;6.67;;;2.27;;
4074;SDS011;2052;53.522;9.806;2022-07-29T12:55:58;1.63;;;1.37;;
4074;SDS011;2052;53.522;9.806;2022-07-29T12:58:27;2.83;;;1.70;;
4074;SDS011;2052;53.522;9.806;2022-07-29T13:01:02;2.80;;;2.40;;
4074;SDS011;2052;53.522;9.806;2022-07-29T13:03:42;7.70;;;2.10;;
4074;SDS011;2052;53.522;9.806;2022-07-29T13:06:33;2.77;;;1.73;;
4074;SDS011;2052;53.522;9.806;2022-07-29T13:09:06;6.10;;;1.90;;
4074;SDS011;2052;53.522;9.806;2022-07-29T13:11:38;2.93;;;2.20;;
4074;SDS011;2052;53.522;9.806;2022-07-29T13:14:06;2.33;;;2.10;;
4074;SDS011;2052;53.522;9.806;2022-07-29T13:16:34;3.30;;;1.73;;
4074;SDS011;2052;53.522;9.806;2022-07-29T13:19:03;5.50;;;1.93;;
4074;SDS011;2052;53.522;9.806;2022-07-29T13:21:32;3.83;;;2.57;;
4074;SDS011;2052;53.522;9.806;2022-07-29T13:23:59;4.20;;;2.00;;
4074;SDS011;2052;53.522;9.806;2022-07-29T13:26:26;3.77;;;2.07;;
4074;SDS011;2052;53.522;9.806;2022-07-29T13:28:53;3.57;;;1.97;;
4074;SDS011;2052;53.522;9.806;2022-07-29T13:31:20;3.50;;;2.40;;
4074;SDS011;2052;53.522;9.806;2022-07-29T13:33:48;4.50;;;1.90;;
4074;SDS011;2052;53.522;9.806;2022-07-29T13:36:14;2.93;;;1.77;;
4074;SDS011;2052;53.522;9.806;2022-07-29T13:38:43;2.30;;;1.33;;
4074;SDS011;2052;53.522;9.806;2022-07-29T13:41:09;3.47;;;1.93;;
4074;SDS011;2052;53.522;9.806;2022-07-29T13:43:36;3.00;;;2.20;;
4074;SDS011;2052;53.522;9.806;2022-07-29T13:46:03;2.93;;;1.60;;
4074;SDS011;2052;53.522;9.806;2022-07-29T13:48:30;3.67;;;1.90;;
4074;SDS011;2052;53.522;9.806;2022-07-29T13:50:57;4.50;;;2.43;;
4074;SDS011;2052;53.522;9.806;2022-07-29T13:53:23;9.60;;;2.13;;
4074;SDS011;2052;53.522;9.806;2022-07-29T13:55:52;2.43;;;1.83;;
4074;SDS011;2052;53.522;9.806;2022-07-29T13:58:18;2.70;;;1.60;;
4074;SDS011;2052;53.522;9.806;2022-07-29T14:00:45;4.17;;;1.90;;
4074;SDS011;2052;53.522;9.806;2022-07-29T14:03:12;2.03;;;1.70;;
4074;SDS011;2052;53.522;9.806;2022-07-29T14:05:39;4.10;;;2.13;;
4074;SDS011;2052;53.522;9.806;2022-07-29T14:08:06;7.10;;;1.70;;
4074;SDS011;2052;53.522;9.806;2022-07-29T14:10:33;2.50;;;1.57;;
4074;SDS011;2052;53.522;9.806;2022-07-29T14:13:01;2.80;;;2.03;;
4074;SDS011;2052;53.522;9.806;2022-07-29T14:15:27;3.87;;;2.00;;
4074;SDS011;2052;53.522;9.806;2022-07-29T14:17:54;1.97;;;1.57;;
4074;SDS011;2052;53.522;9.806;2022-07-29T14:20:21;4.20;;;2.20;;
4074;SDS011;2052;53.522;9.806;2022-07-29T14:22:48;3.03;;;1.93;;
4074;SDS011;2052;53.522;9.806;2022-07-29T14:25:14;2.20;;;1.90;;
4074;SDS011;2052;53.522;9.806;2022-07-29T14:27:41;12.07;;;2.27;;
4074;SDS011;2052;53.522;9.806;2022-07-29T14:30:11;6.73;;;2.37;;
4074;SDS011;2052;53.522;9.806;2022-07-29T14:32:38;5.63;;;2.17;;
4074;SDS011;2052;53.522;9.806;2022-07-29T14:35:05;3.90;;;2.43;;
4074;SDS011;2052;53.522;9.806;2022-07-29T14:37:32;4.47;;;2.30;;
4074;SDS011;2052;53.522;9.806;2022-07-29T14:40:00;5.30;;;2.70;;
4074;SDS011;2052;53.522;9.806;2022-07-29T14:42:28;5.63;;;2.17;;
4074;SDS011;2052;53.522;9.806;2022-07-29T14:44:55;7.60;;;2.13;;
4074;SDS011;2052;53.522;9.806;2022-07-29T14:47:23;6.50;;;2.50;;
4074;SDS011;2052;53.522;9.806;2022-07-29T14:49:50;8.40;;;2.60;;
4074;SDS011;2052;53.522;9.806;2022-07-29T14:52:17;5.10;;;2.90;;
4074;SDS011;2052;53.522;9.806;2022-07-29T14:54:44;9.83;;;2.30;;
4074;SDS011;2052;53.522;9.806;2022-07-29T14:57:10;6.43;;;2.50;;
4074;SDS011;2052;53.522;9.806;2022-07-29T14:59:37;3.93;;;2.83;;
4074;SDS011;2052;53.522;9.806;2022-07-29T15:02:04;10.53;;;3.20;;
4074;SDS011;2052;53.522;9.806;2022-07-29T15:04:32;6.30;;;2.70;;
4074;SDS011;2052;53.522;9.806;2022-07-29T15:06:59;10.30;;;2.70;;
4074;SDS011;2052;53.522;9.806;2022-07-29T15:09:26;5.33;;;2.87;;
4074;SDS011;2052;53.522;9.806;2022-07-29T15:11:52;9.70;;;2.87;;
4074;SDS011;2052;53.522;9.806;2022-07-29T15:14:19;8.23;;;2.67;;
4074;SDS011;2052;53.522;9.806;2022-07-29T15:16:46;4.33;;;2.53;;
4074;SDS011;2052;53.522;9.806;2022-07-29T15:19:13;5.90;;;2.63;;
4074;SDS011;2052;53.522;9.806;2022-07-29T15:21:41;7.97;;;2.90;;
4074;SDS011;2052;53.522;9.806;2022-07-29T15:24:08;6.17;;;2.53;;
4074;SDS011;2052;53.522;9.806;2022-07-29T15:26:34;4.17;;;1.90;;
4074;SDS011;2052;53.522;9.806;2022-07-29T15:29:01;4.70;;;2.20;;
4074;SDS011;2052;53.522;9.806;2022-07-29T15:31:28;6.80;;;2.10;;
4074;SDS011;2052;53.522;9.806;2022-07-29T15:33:55;4.97;;;2.43;;
4074;SDS011;2052;53.522;9.806;2022-07-29T15:36:21;4.90;;;2.00;;
4074;SDS011;2052;53.522;9.806;2022-07-29T15:38:51;5.03;;;2.70;;
4074;SDS011;2052;53.522;9.806;2022-07-29T15:41:18;4.63;;;2.50;;